createdAt,value
2019-02-12T05:00:17.928Z,78.10
2019-02-12T05:02:40.468Z,78.00
2019-02-12T05:05:03.371Z,77.80
2019-02-12T05:07:25.788Z,77.70
2019-02-12T05:09:50.830Z,77.60
2019-02-12T05:12:15.300Z,77.50
2019-02-12T05:14:37.854Z,77.40
2019-02-12T06:02:27.516Z,77.70
2019-02-12T06:04:49.970Z,77.60
2019-02-12T06:07:12.409Z,77.50
2019-02-12T06:09:34.982Z,77.60
2019-02-12T06:12:01.470Z,77.70
2019-02-12T06:14:27.289Z,77.90
2019-02-12T07:02:34.786Z,77.60
2019-02-12T07:04:57.224Z,77.60
2019-02-12T07:07:57.172Z,77.40
2019-02-12T07:10:25.238Z,77.40
2019-02-12T07:13:45.091Z,77.50
2019-02-12T08:01:20.954Z,72.70
2019-02-12T08:04:33.701Z,72.70
2019-02-12T08:07:57.227Z,72.30
2019-02-12T08:11:21.960Z,72.40
2019-02-12T08:14:23.463Z,72.90
2019-02-12T09:04:14.119Z,66.60
2019-02-12T09:06:49.943Z,65.40
2019-02-12T09:09:24.998Z,64.70
2019-02-12T09:12:00.379Z,61.60
2019-02-12T09:14:35.602Z,55.00
2019-02-12T10:02:04.694Z,43.90
2019-02-12T10:04:45.367Z,44.00
2019-02-12T10:07:17.922Z,45.20
2019-02-12T10:10:31.239Z,44.40
2019-02-12T10:13:35.277Z,44.40
2019-02-12T10:31:13.242Z,39.50
2019-02-12T10:33:41.106Z,39.70
2019-02-12T10:36:03.609Z,40.00
2019-02-12T10:38:26.139Z,40.60
2019-02-12T10:40:48.548Z,40.30
2019-02-12T10:43:11.028Z,40.80
2019-02-12T10:45:33.462Z,39.70
2019-02-12T10:47:55.885Z,40.50
2019-02-12T10:50:18.419Z,39.90
2019-02-12T10:52:40.835Z,39.30
2019-02-12T10:55:04.243Z,39.50
2019-02-12T10:57:28.439Z,39.40
2019-02-12T10:59:50.849Z,39.20
2019-02-12T11:02:13.393Z,38.40
2019-02-12T11:04:35.894Z,39.70
2019-02-12T11:06:58.315Z,39.10
2019-02-12T11:09:20.754Z,38.90
2019-02-12T11:11:43.163Z,39.30
2019-02-12T11:14:05.641Z,39.00
2019-02-12T11:45:45.571Z,40.60
2019-02-12T11:48:08.051Z,39.50
2019-02-12T11:50:32.738Z,40.20
2019-02-12T11:52:55.147Z,40.50
2019-02-12T11:55:19.954Z,39.90
2019-02-12T11:57:42.386Z,40.80
2019-02-12T12:00:07.423Z,40.10
2019-02-12T12:02:33.029Z,40.70
2019-02-12T12:04:56.322Z,41.30
2019-02-12T12:07:19.756Z,42.10
2019-02-12T12:09:42.194Z,42.60
2019-02-12T12:12:04.638Z,42.50
2019-02-12T12:14:27.054Z,42.40
2019-02-12T12:19:54.437Z,43.30
2019-02-12T12:22:28.947Z,43.70
2019-02-12T12:25:04.111Z,44.10
2019-02-12T12:27:27.231Z,44.00
2019-02-12T12:42:22.550Z,45.50
2019-02-12T12:44:46.058Z,45.50
2019-02-12T12:47:08.570Z,44.20
2019-02-12T12:49:31.059Z,43.40
2019-02-12T12:51:53.566Z,42.10
2019-02-12T12:54:16.154Z,41.80
2019-02-12T12:56:38.587Z,41.30
2019-02-12T12:59:01.075Z,41.50
2019-02-12T13:01:23.534Z,42.00
2019-02-12T13:03:46.376Z,42.00
2019-02-12T13:06:08.809Z,43.00
2019-02-12T13:08:31.268Z,43.50
2019-02-12T13:10:53.825Z,43.90
2019-02-12T13:13:16.979Z,44.50
2019-02-12T14:01:14.170Z,44.40
2019-02-12T14:03:36.808Z,43.90
2019-02-12T14:05:59.443Z,43.40
2019-02-12T14:08:34.235Z,43.80
2019-02-12T14:11:09.655Z,44.00
2019-02-12T14:13:44.547Z,44.30
2019-02-12T14:49:27.174Z,42.50
2019-02-12T14:51:49.615Z,42.10
2019-02-12T14:54:12.019Z,42.10
2019-02-12T14:56:47.416Z,41.50
2019-02-12T14:59:22.576Z,41.80
2019-02-12T15:01:57.441Z,41.70
2019-02-12T15:04:32.475Z,42.20
2019-02-12T15:07:07.451Z,43.00
2019-02-12T15:09:42.355Z,43.00
2019-02-12T15:12:17.407Z,43.30
2019-02-12T15:14:52.855Z,43.30
2019-02-12T15:49:40.550Z,44.00
2019-02-12T16:13:56.670Z,46.70
2019-02-12T16:49:20.999Z,50.00
2019-02-12T16:51:43.534Z,50.60
2019-02-12T16:54:05.966Z,50.70
2019-02-12T16:56:28.508Z,51.00
2019-02-12T16:58:50.996Z,51.00
2019-02-12T17:01:13.435Z,51.20
2019-02-12T17:03:35.902Z,51.30
2019-02-12T17:05:58.408Z,51.40
2019-02-12T17:08:20.933Z,51.60
2019-02-12T17:10:44.469Z,51.60
2019-02-12T17:13:06.940Z,52.10
2019-02-12T17:45:02.685Z,54.10
2019-02-12T21:00:20.283Z,63.60
2019-02-12T21:02:42.839Z,63.80
2019-02-12T21:05:06.627Z,63.60
2019-02-12T21:07:32.246Z,64.90
2019-02-12T21:09:55.711Z,64.10
2019-02-12T21:12:18.130Z,64.20
2019-02-12T21:14:40.578Z,64.10
